Time;durP1;ratioP1;P1;durP2;ratioP2;P2;SDS_P1;SDS_P2;PMS_P1;PMS_P2;Temp;Humidity;BMP_temperature;BMP_pressure;BME280_temperature;BME280_humidity;BME280_pressure;Samples;Min_cycle;Max_cycle;Signal;HPM_P1;HPM_P2
2022/12/27 00:00:21;;;;;;;13.55;3.10;;;5.50;99.90;;;;;;5056156;28;20029;-71
2022/12/27 00:02:47;;;;;;;13.57;3.35;;;5.60;99.90;;;;;;5054319;28;20033;-71
2022/12/27 00:05:14;;;;;;;10.07;3.10;;;5.60;99.90;;;;;;5054428;28;20029;-71
2022/12/27 00:07:41;;;;;;;11.93;3.65;;;5.60;99.90;;;;;;5054290;28;20062;-70
2022/12/27 00:10:07;;;;;;;13.05;3.33;;;5.60;99.90;;;;;;5055520;28;20025;-71
2022/12/27 00:12:33;;;;;;;12.77;3.20;;;5.70;99.90;;;;;;5055381;28;20029;-71
2022/12/27 00:14:59;;;;;;;11.52;3.42;;;5.70;99.90;;;;;;5054405;28;20040;-71
2022/12/27 00:17:26;;;;;;;8.52;3.22;;;5.60;99.90;;;;;;5054151;28;20049;-70
2022/12/27 00:19:52;;;;;;;9.85;3.20;;;5.60;99.90;;;;;;5037377;28;20032;-71
2022/12/27 00:22:18;;;;;;;16.38;3.83;;;5.60;99.90;;;;;;5054910;28;20041;-70
2022/12/27 00:24:44;;;;;;;12.52;3.53;;;5.50;99.90;;;;;;5052924;28;20056;-71
2022/12/27 00:27:10;;;;;;;12.25;3.38;;;5.50;99.90;;;;;;5037595;28;20478;-71
2022/12/27 00:29:36;;;;;;;11.75;3.58;;;5.50;99.90;;;;;;5054847;28;20149;-71
2022/12/27 00:32:01;;;;;;;12.00;3.60;;;5.60;99.90;;;;;;5037152;28;20033;-71
2022/12/27 00:34:27;;;;;;;11.68;3.38;;;5.60;99.90;;;;;;5037698;28;20036;-70
2022/12/27 00:36:53;;;;;;;16.92;3.70;;;5.60;99.90;;;;;;5055019;28;20032;-71
2022/12/27 00:39:18;;;;;;;10.23;3.30;;;5.70;99.90;;;;;;5037627;28;20036;-71
2022/12/27 00:41:44;;;;;;;13.20;3.70;;;5.70;99.90;;;;;;5053570;28;20033;-71
2022/12/27 00:44:10;;;;;;;12.60;4.05;;;5.60;99.90;;;;;;5053451;28;20025;-71
2022/12/27 00:46:35;;;;;;;13.25;4.15;;;5.60;99.90;;;;;;5054825;28;20578;-70
2022/12/27 00:49:01;;;;;;;10.93;3.20;;;5.60;99.90;;;;;;5054487;28;20116;-71
2022/12/27 00:51:27;;;;;;;10.73;4.03;;;5.60;99.90;;;;;;5054755;28;20029;-71
2022/12/27 00:53:53;;;;;;;12.80;3.58;;;5.50;99.90;;;;;;5054983;28;20441;-71
2022/12/27 00:56:22;;;;;;;13.15;4.10;;;5.60;99.90;;;;;;5054309;28;20116;-71
2022/12/27 00:58:55;;;;;;;16.05;3.97;;;5.60;99.90;;;;;;5055114;28;20028;-71
2022/12/27 01:01:22;;;;;;;10.68;3.72;;;5.60;99.90;;;;;;5054731;28;20039;-71
2022/12/27 01:03:48;;;;;;;14.75;3.40;;;5.60;99.90;;;;;;5054528;28;20029;-71
2022/12/27 01:06:17;;;;;;;12.90;3.22;;;5.60;99.90;;;;;;5053188;28;20146;-71
2022/12/27 01:08:43;;;;;;;12.43;3.90;;;5.60;99.90;;;;;;5054120;28;20039;-71
2022/12/27 01:11:10;;;;;;;16.20;3.60;;;5.60;99.90;;;;;;5054359;28;20037;-71
2022/12/27 01:13:36;;;;;;;9.25;3.08;;;5.50;99.90;;;;;;5054092;28;20036;-71
2022/12/27 01:16:11;;;;;;;13.32;3.53;;;5.50;99.90;;;;;;5054138;28;20052;-70
2022/12/27 01:18:37;;;;;;;16.75;3.25;;;5.50;99.90;;;;;;5054328;28;20033;-71
2022/12/27 01:21:08;;;;;;;11.02;3.63;;;5.50;99.90;;;;;;5054427;28;20465;-71
2022/12/27 01:23:35;;;;;;;10.63;3.30;;;5.50;99.90;;;;;;5054405;28;20033;-71
2022/12/27 01:26:02;;;;;;;11.88;3.20;;;5.50;99.90;;;;;;5054332;28;20043;-73
2022/12/27 01:28:27;;;;;;;13.05;3.47;;;5.50;99.90;;;;;;5054081;28;20021;-70
2022/12/27 01:30:53;;;;;;;11.98;3.38;;;5.40;99.90;;;;;;5053942;28;20028;-71
2022/12/27 01:33:19;;;;;;;12.68;4.07;;;5.40;99.90;;;;;;5052820;28;20033;-71
2022/12/27 01:35:44;;;;;;;13.30;3.90;;;5.50;99.90;;;;;;5053881;28;20036;-71
2022/12/27 01:38:10;;;;;;;10.75;3.55;;;5.50;99.90;;;;;;5052472;28;20539;-71
2022/12/27 01:40:36;;;;;;;13.75;3.42;;;5.40;99.90;;;;;;5035886;28;20056;-71
2022/12/27 01:43:02;;;;;;;10.15;3.47;;;5.40;99.90;;;;;;5053306;28;20064;-71
2022/12/27 01:45:33;;;;;;;9.07;3.00;;;5.40;99.90;;;;;;5020141;28;20074;-71
2022/12/27 01:48:13;;;;;;;11.18;3.50;;;5.40;99.90;;;;;;5053105;28;20029;-71
2022/12/27 01:50:58;;;;;;;7.65;3.50;;;5.40;99.90;;;;;;5054015;28;20052;-71
2022/12/27 01:53:29;;;;;;;13.00;3.75;;;5.40;99.90;;;;;;5054031;28;20036;-71
2022/12/27 01:55:57;;;;;;;15.07;3.58;;;5.40;99.90;;;;;;5052589;28;20036;-71
2022/12/27 01:58:28;;;;;;;10.73;3.72;;;5.50;99.90;;;;;;5054195;28;20060;-71
2022/12/27 02:00:55;;;;;;;13.52;3.90;;;5.50;99.90;;;;;;5052500;28;20079;-71
2022/12/27 02:03:33;;;;;;;8.43;3.15;;;5.50;99.90;;;;;;5052400;28;20029;-70
2022/12/27 02:06:02;;;;;;;10.23;3.55;;;5.50;99.90;;;;;;5053637;28;20079;-71
2022/12/27 02:08:36;;;;;;;11.00;3.85;;;5.40;99.90;;;;;;5062991;28;20033;-79
2022/12/27 02:11:04;;;;;;;16.50;4.15;;;5.40;99.90;;;;;;5065903;28;20111;-79
2022/12/27 02:13:33;;;;;;;13.65;3.80;;;5.30;99.90;;;;;;5061722;28;20053;-79
2022/12/27 02:15:59;;;;;;;12.88;3.40;;;5.40;99.90;;;;;;5056242;28;20087;-79
2022/12/27 02:18:25;;;;;;;15.38;3.33;;;5.40;99.90;;;;;;5056063;28;20044;-79
2022/12/27 02:21:29;;;;;;;14.45;4.18;;;5.40;99.90;;;;;;5044381;28;20030;-80
2022/12/27 02:24:06;;;;;;;;;;;5.30;99.90;;;;;;5057353;28;20037;-79
2022/12/27 02:26:38;;;;;;;15.18;4.50;;;5.40;99.90;;;;;;5054894;28;19919;-79
2022/12/27 02:29:13;;;;;;;12.07;3.78;;;5.40;99.90;;;;;;5059107;28;20142;-81
2022/12/27 02:31:53;;;;;;;15.35;3.97;;;5.40;99.90;;;;;;5054745;28;20040;-79
2022/12/27 02:34:27;;;;;;;13.55;3.85;;;5.30;99.90;;;;;;5053839;28;20112;-79
2022/12/27 02:36:59;;;;;;;12.90;4.25;;;5.40;99.90;;;;;;5053277;28;20108;-79
2022/12/27 02:39:27;;;;;;;13.70;4.20;;;5.40;99.90;;;;;;5053553;28;20029;-79
2022/12/27 02:53:07;;;;;;;11.52;3.33;;;5.50;99.90;;;;;;5056986;28;20087;-79
2022/12/27 02:59:04;;;;;;;10.73;3.40;;;5.60;99.90;;;;;;5057350;28;20386;-78
2022/12/27 03:05:04;;;;;;;10.57;3.08;;;5.60;99.90;;;;;;5057804;28;20043;-80
2022/12/27 03:08:00;;;;;;;16.58;3.30;;;5.60;99.90;;;;;;5058847;28;20031;-79
2022/12/27 03:16:54;;;;;;;10.45;2.60;;;5.60;99.90;;;;;;5057949;28;20530;-79
2022/12/27 03:25:28;;;;;;;9.73;2.70;;;5.70;99.90;;;;;;5057435;28;20055;-79
2022/12/27 03:34:03;;;;;;;8.48;3.28;;;5.60;99.90;;;;;;5056690;28;20059;-79
2022/12/27 03:39:30;;;;;;;11.02;2.92;;;5.50;99.90;;;;;;5058009;28;20039;-79
2022/12/27 03:44:57;;;;;;;13.90;2.70;;;5.50;99.90;;;;;;5056870;28;20523;-78
2022/12/27 03:47:46;;;;;;;8.35;3.20;;;5.50;99.90;;;;;;5038260;28;20037;-79
2022/12/27 03:50:29;;;;;;;9.85;3.10;;;5.40;99.90;;;;;;5057257;28;20025;-79
2022/12/27 03:53:08;;;;;;;12.68;3.53;;;5.40;99.90;;;;;;5055391;28;20035;-79
2022/12/27 03:55:34;;;;;;;9.50;3.45;;;5.50;99.90;;;;;;5056647;28;20070;-79
2022/12/27 03:58:00;;;;;;;12.45;4.07;;;5.50;99.90;;;;;;5056080;28;20063;-79
2022/12/27 04:00:25;;;;;;;14.05;4.18;;;5.50;99.90;;;;;;5055211;28;20369;-79
2022/12/27 04:02:51;;;;;;;16.67;4.35;;;5.50;99.90;;;;;;5037853;28;20114;-79
2022/12/27 04:05:17;;;;;;;13.90;4.63;;;5.50;99.90;;;;;;5056168;28;20025;-79
2022/12/27 04:35:04;;;;;;;15.13;3.72;;;5.60;99.90;;;;;;5055896;28;20036;-80
2022/12/27 04:37:29;;;;;;;10.90;3.63;;;5.50;99.90;;;;;;5054089;28;20071;-78
2022/12/27 04:56:25;;;;;;;15.65;3.83;;;5.50;99.90;;;;;;5055446;28;20499;-79
2022/12/27 05:04:19;;;;;;;10.70;3.00;;;5.40;99.90;;;;;;5055048;28;20519;-79
2022/12/27 05:06:45;;;;;;;11.80;3.40;;;5.40;99.90;;;;;;5054931;28;20120;-79
2022/12/27 05:14:38;;;;;;;11.50;3.13;;;5.20;99.90;;;;;;5055726;28;20044;-79
2022/12/27 05:17:04;;;;;;;14.60;3.72;;;5.20;99.90;;;;;;5054814;28;20486;-79
2022/12/27 05:19:30;;;;;;;16.30;3.92;;;5.20;99.90;;;;;;5056518;28;20033;-80
2022/12/27 05:27:23;;;;;;;13.13;3.08;;;5.20;99.90;;;;;;5056909;28;20397;-79
2022/12/27 05:29:49;;;;;;;12.15;3.63;;;5.20;99.90;;;;;;5055741;28;20037;-79
2022/12/27 05:32:15;;;;;;;16.20;3.67;;;5.20;99.90;;;;;;5056725;28;20037;-79
2022/12/27 05:34:40;;;;;;;12.90;3.20;;;5.30;99.90;;;;;;5056757;28;20436;-79
2022/12/27 05:37:06;;;;;;;13.00;3.40;;;5.20;99.90;;;;;;5058954;28;20462;-79
2022/12/27 05:39:32;;;;;;;15.85;3.58;;;5.20;99.90;;;;;;5065305;28;20039;-79
2022/12/27 05:41:58;;;;;;;13.52;3.38;;;5.20;99.90;;;;;;5060124;28;20068;-79
2022/12/27 05:44:23;;;;;;;17.52;3.35;;;5.30;99.90;;;;;;5062732;28;20033;-80
2022/12/27 05:46:49;;;;;;;10.80;3.35;;;5.20;99.90;;;;;;5065950;28;20517;-80
2022/12/27 05:49:14;;;;;;;21.35;4.15;;;5.30;99.90;;;;;;5066681;28;20085;-80
2022/12/27 05:51:40;;;;;;;16.00;3.55;;;5.30;99.90;;;;;;5069183;28;20041;-80
2022/12/27 05:54:06;;;;;;;15.00;3.72;;;5.30;99.90;;;;;;5044772;28;20037;-80
2022/12/27 05:56:34;;;;;;;10.57;3.58;;;5.30;99.90;;;;;;5058643;28;20147;-80
2022/12/27 05:59:00;;;;;;;14.77;3.70;;;5.30;99.90;;;;;;5058642;28;20600;-80
2022/12/27 06:01:26;;;;;;;17.05;4.15;;;5.30;99.90;;;;;;5061338;28;20037;-79
2022/12/27 06:03:51;;;;;;;11.15;3.40;;;5.30;99.90;;;;;;5059268;28;20468;-80
2022/12/27 06:06:17;;;;;;;16.85;3.95;;;5.30;99.90;;;;;;5062715;28;20044;-79
2022/12/27 06:08:43;;;;;;;15.13;3.65;;;5.30;99.90;;;;;;5059172;28;20025;-80
2022/12/27 06:11:14;;;;;;;14.10;3.60;;;5.30;99.90;;;;;;5058601;28;20551;-80
2022/12/27 06:13:41;;;;;;;9.60;3.20;;;5.30;99.90;;;;;;5060103;28;20102;-80
2022/12/27 06:16:10;;;;;;;18.88;4.10;;;5.30;99.90;;;;;;5062637;28;20052;-80
2022/12/27 06:18:38;;;;;;;10.60;4.15;;;5.30;99.90;;;;;;5061967;28;20036;-79
2022/12/27 06:21:14;;;;;;;11.43;2.97;;;5.30;99.90;;;;;;5059416;28;20025;-81
2022/12/27 06:23:43;;;;;;;13.40;3.40;;;5.30;99.90;;;;;;5044996;28;20060;-80
2022/12/27 06:26:18;;;;;;;12.23;3.38;;;5.30;99.90;;;;;;5064048;28;20021;-80
2022/12/27 06:28:44;;;;;;;9.90;3.25;;;5.30;99.90;;;;;;5062011;28;20040;-80
2022/12/27 06:31:10;;;;;;;16.73;3.45;;;5.30;99.90;;;;;;5061719;28;20033;-80
2022/12/27 06:33:36;;;;;;;9.98;3.55;;;5.40;99.90;;;;;;5065995;28;20040;-80
2022/12/27 06:36:10;;;;;;;16.60;4.20;;;5.40;99.90;;;;;;5046931;28;20033;-81
2022/12/27 06:38:36;;;;;;;13.98;3.60;;;5.40;99.90;;;;;;5067674;28;20025;-81
2022/12/27 06:41:03;;;;;;;13.35;3.58;;;5.40;99.90;;;;;;5047787;28;20033;-80
2022/12/27 06:43:29;;;;;;;11.68;3.42;;;5.40;99.90;;;;;;5054180;28;20060;-80
2022/12/27 06:46:01;;;;;;;13.25;3.03;;;5.40;99.90;;;;;;5069651;28;20041;-79
2022/12/27 06:48:27;;;;;;;11.25;3.10;;;5.40;99.90;;;;;;5068671;28;20033;-79
2022/12/27 06:50:52;;;;;;;16.13;2.88;;;5.40;99.90;;;;;;5070745;28;20414;-80
2022/12/27 06:53:18;;;;;;;13.95;3.45;;;5.40;99.90;;;;;;5072987;28;20029;-79
2022/12/27 06:55:44;;;;;;;12.10;3.20;;;5.40;99.90;;;;;;5068813;28;20389;-79
2022/12/27 06:58:11;;;;;;;10.80;2.70;;;5.40;99.90;;;;;;5071512;28;20029;-79
2022/12/27 07:00:37;;;;;;;13.07;2.88;;;5.30;99.90;;;;;;5064331;28;20033;-80
2022/12/27 07:03:03;;;;;;;10.70;2.90;;;5.30;99.90;;;;;;5059204;28;20099;-79
2022/12/27 07:05:29;;;;;;;11.45;3.80;;;5.30;99.90;;;;;;5060680;28;20025;-80
2022/12/27 07:07:54;;;;;;;13.98;3.35;;;5.20;99.90;;;;;;5044639;28;20040;-79
2022/12/27 07:10:20;;;;;;;12.10;3.78;;;5.20;99.90;;;;;;5043864;28;20032;-79
2022/12/27 07:12:46;;;;;;;10.30;3.10;;;5.20;99.90;;;;;;5063507;28;20059;-80
2022/12/27 07:15:12;;;;;;;17.75;4.50;;;5.30;99.90;;;;;;5047749;28;20565;-81
2022/12/27 07:17:38;;;;;;;10.73;3.35;;;5.20;99.90;;;;;;5062152;28;20045;-80
2022/12/27 07:20:05;;;;;;;12.88;3.42;;;5.20;99.90;;;;;;5063044;28;20124;-81
2022/12/27 07:22:31;;;;;;;14.20;3.53;;;5.30;99.90;;;;;;5064466;28;20102;-80
2022/12/27 07:24:57;;;;;;;14.07;3.67;;;5.20;99.90;;;;;;5067600;28;20100;-80
2022/12/27 07:27:23;;;;;;;13.73;3.30;;;5.30;99.90;;;;;;5063995;28;20428;-80
2022/12/27 07:29:48;;;;;;;10.43;2.85;;;5.20;99.90;;;;;;5067114;28;20036;-80
2022/12/27 07:32:14;;;;;;;12.90;2.83;;;5.20;99.90;;;;;;5067684;28;20037;-81
2022/12/27 07:34:40;;;;;;;13.10;3.05;;;5.20;99.90;;;;;;5052877;28;20033;-80
2022/12/27 07:37:05;;;;;;;13.80;3.17;;;5.20;99.90;;;;;;5073359;28;20106;-80
2022/12/27 07:39:31;;;;;;;13.48;3.22;;;5.20;99.90;;;;;;5041209;28;20401;-80
2022/12/27 07:41:56;;;;;;;14.00;3.17;;;5.20;99.90;;;;;;5070506;28;20048;-81
2022/12/27 07:44:22;;;;;;;12.93;3.15;;;5.20;99.90;;;;;;5069079;28;20089;-81
2022/12/27 07:46:48;;;;;;;12.38;3.17;;;5.30;99.90;;;;;;5070362;28;20481;-80
2022/12/27 07:49:13;;;;;;;15.23;3.33;;;5.20;99.90;;;;;;5070602;28;20029;-81
2022/12/27 07:51:39;;;;;;;14.23;3.30;;;5.20;99.90;;;;;;5073239;28;20033;-80
2022/12/27 07:54:05;;;;;;;14.80;3.80;;;5.20;99.90;;;;;;5071792;28;20025;-80
2022/12/27 07:56:30;;;;;;;18.65;3.47;;;5.20;99.90;;;;;;5072593;28;20517;-81
2022/12/27 07:58:58;;;;;;;13.63;3.85;;;5.30;99.90;;;;;;5072967;28;20032;-80
2022/12/27 08:01:26;;;;;;;11.32;3.30;;;5.20;99.90;;;;;;5072573;28;20021;-81
2022/12/27 08:03:52;;;;;;;13.00;3.85;;;5.30;99.90;;;;;;5070324;28;20021;-79
2022/12/27 08:06:30;;;;;;;13.52;4.90;;;5.20;99.90;;;;;;5069811;28;20060;-80
2022/12/27 08:08:58;;;;;;;11.48;4.22;;;5.20;99.90;;;;;;5070405;28;20025;-80
2022/12/27 08:11:28;;;;;;;12.68;3.90;;;5.20;99.90;;;;;;5071665;28;20453;-79
2022/12/27 08:13:54;;;;;;;13.45;4.13;;;5.10;99.90;;;;;;5073495;28;20028;-80
2022/12/27 08:16:22;;;;;;;14.20;4.20;;;5.10;99.90;;;;;;5071696;28;20049;-80
2022/12/27 08:18:49;;;;;;;14.15;4.60;;;5.10;99.90;;;;;;5073380;28;20013;-80
2022/12/27 08:21:15;;;;;;;9.45;4.78;;;5.10;99.90;;;;;;5073504;28;20025;-80
2022/12/27 08:23:41;;;;;;;15.60;4.40;;;5.20;99.90;;;;;;5070967;28;20025;-80
2022/12/27 08:26:07;;;;;;;15.35;5.72;;;5.20;99.90;;;;;;5073387;28;20445;-80
2022/12/27 08:28:34;;;;;;;16.98;4.70;;;5.20;99.90;;;;;;5072342;28;20060;-81
2022/12/27 08:31:00;;;;;;;17.23;5.60;;;5.30;99.90;;;;;;5071841;28;20021;-81
2022/12/27 08:33:26;;;;;;;9.95;4.38;;;5.20;99.90;;;;;;5065655;28;20100;-80
2022/12/27 08:35:52;;;;;;;16.33;4.90;;;5.30;99.90;;;;;;5071347;28;20021;-80
2022/12/27 08:38:19;;;;;;;14.60;5.00;;;5.40;99.90;;;;;;5067937;28;20025;-81
2022/12/27 08:40:45;;;;;;;16.17;4.90;;;5.40;99.90;;;;;;5067514;28;20048;-81
2022/12/27 08:43:11;;;;;;;15.18;4.88;;;5.40;99.90;;;;;;5063506;28;20036;-81
2022/12/27 08:45:38;;;;;;;15.10;5.10;;;5.40;99.90;;;;;;5052293;28;20036;-81
2022/12/27 08:48:04;;;;;;;15.82;4.82;;;5.40;99.90;;;;;;5070820;28;20035;-81
2022/12/27 08:50:30;;;;;;;12.98;4.70;;;5.50;99.90;;;;;;5069778;28;20497;-80
2022/12/27 08:52:59;;;;;;;19.45;5.10;;;5.50;99.90;;;;;;5062900;28;20037;-81
2022/12/27 08:55:26;;;;;;;11.68;4.68;;;5.50;99.90;;;;;;5061264;28;20381;-80
2022/12/27 08:57:58;;;;;;;15.43;4.57;;;5.60;99.90;;;;;;5061028;28;20025;-80
2022/12/27 09:00:25;;;;;;;16.85;4.22;;;5.60;99.90;;;;;;5063175;28;20033;-80
2022/12/27 09:02:52;;;;;;;13.80;4.10;;;5.60;99.90;;;;;;5062580;28;20033;-81
2022/12/27 09:05:18;;;;;;;16.55;4.65;;;5.60;99.90;;;;;;5065747;28;20013;-80
2022/12/27 09:07:45;;;;;;;15.45;4.40;;;5.70;99.90;;;;;;5054414;28;20075;-80
2022/12/27 09:10:11;;;;;;;16.63;4.47;;;5.70;99.90;;;;;;5070804;28;20025;-80
2022/12/27 09:12:36;;;;;;;13.65;4.60;;;5.70;99.90;;;;;;5068995;28;20072;-80
2022/12/27 09:15:02;;;;;;;15.30;5.05;;;5.80;99.90;;;;;;5071834;28;20036;-81
2022/12/27 09:17:27;;;;;;;13.77;5.18;;;5.80;99.90;;;;;;5072499;28;20474;-80
2022/12/27 09:19:59;;;;;;;12.93;4.45;;;5.80;99.90;;;;;;5055779;28;20013;-81
2022/12/27 09:22:26;;;;;;;12.20;4.80;;;5.80;99.90;;;;;;5070943;28;20121;-80
2022/12/27 09:24:52;;;;;;;13.38;4.30;;;5.90;99.90;;;;;;5072173;28;20525;-80
2022/12/27 09:27:17;;;;;;;14.77;4.90;;;5.80;99.90;;;;;;5071574;28;20056;-80
2022/12/27 09:29:43;;;;;;;13.98;4.45;;;5.90;99.90;;;;;;5071438;28;20056;-81
2022/12/27 09:32:08;;;;;;;14.60;4.55;;;5.80;99.90;;;;;;5067354;28;20048;-81
2022/12/27 09:34:34;;;;;;;16.13;4.43;;;5.90;99.90;;;;;;5074245;28;20036;-81
2022/12/27 09:37:00;;;;;;;13.77;4.03;;;5.90;99.90;;;;;;5046841;28;20036;-81
2022/12/27 09:39:25;;;;;;;17.13;4.85;;;5.90;99.90;;;;;;5052965;28;20060;-81
2022/12/27 09:42:05;;;;;;;12.40;4.22;;;5.90;99.90;;;;;;5053893;28;20047;-81
2022/12/27 09:44:54;;;;;;;10.15;4.25;;;6.00;99.90;;;;;;5053458;28;20458;-81
2022/12/27 09:47:26;;;;;;;16.52;4.68;;;6.00;99.90;;;;;;5054260;28;20052;-81
2022/12/27 09:49:55;;;;;;;18.60;5.25;;;6.00;99.90;;;;;;5053928;28;20036;-82
2022/12/27 09:52:31;;;;;;;15.15;4.35;;;5.90;99.90;;;;;;5053795;28;20021;-82
2022/12/27 09:55:29;;;;;;;15.43;4.50;;;6.00;99.90;;;;;;5054364;28;20468;-82
2022/12/27 09:58:08;;;;;;;16.63;4.70;;;6.00;99.90;;;;;;5054493;28;20487;-82
2022/12/27 10:00:34;;;;;;;16.08;4.80;;;6.00;99.90;;;;;;5053958;28;20025;-81
2022/12/27 10:03:03;;;;;;;15.75;4.70;;;6.00;99.90;;;;;;5053890;28;20041;-81
2022/12/27 10:05:33;;;;;;;17.73;5.15;;;6.00;99.90;;;;;;5052579;28;20070;-81
2022/12/27 10:08:01;;;;;;;15.88;5.43;;;5.90;99.90;;;;;;5052287;28;20025;-82
2022/12/27 10:10:38;;;;;;;13.48;5.03;;;5.90;99.90;;;;;;5052270;28;20029;-81
2022/12/27 10:13:18;;;;;;;13.38;5.57;;;5.80;99.90;;;;;;5053278;28;20473;-81
2022/12/27 10:15:53;;;;;;;15.02;5.97;;;5.90;99.90;;;;;;5053554;28;20462;-85
2022/12/27 10:18:44;;;;;;;13.45;5.93;;;5.90;99.90;;;;;;5054734;28;20021;-80
2022/12/27 10:21:20;;;;;;;11.90;4.95;;;5.90;99.90;;;;;;5053793;28;20449;-80
2022/12/27 10:23:59;;;;;;;16.75;5.93;;;5.90;99.90;;;;;;5055705;28;20534;-79
2022/12/27 10:26:25;;;;;;;13.93;5.60;;;5.90;99.90;;;;;;5057590;28;20025;-78
2022/12/27 10:29:00;;;;;;;11.88;6.00;;;6.00;99.90;;;;;;5055742;28;20482;-80
2022/12/27 10:31:28;;;;;;;20.17;7.35;;;5.90;99.90;;;;;;5055801;28;20040;-79
2022/12/27 10:33:53;;;;;;;19.58;8.23;;;6.00;99.90;;;;;;5037596;28;20123;-80
2022/12/27 10:36:28;;;;;;;19.52;8.30;;;6.00;99.90;;;;;;5054492;28;20052;-80
2022/12/27 10:38:54;;;;;;;17.05;9.60;;;6.00;99.90;;;;;;5056769;28;20021;-78
2022/12/27 10:41:32;;;;;;;24.23;10.52;;;6.00;99.90;;;;;;5054231;28;20033;-78
2022/12/27 10:43:58;;;;;;;19.08;9.45;;;6.00;99.90;;;;;;5053352;28;20025;-78
2022/12/27 10:46:26;;;;;;;21.45;9.50;;;6.00;99.90;;;;;;5053908;28;20450;-78
2022/12/27 10:49:35;;;;;;;17.55;8.88;;;6.10;99.90;;;;;;5054780;28;20117;-79
2022/12/27 10:52:19;;;;;;;17.00;8.50;;;6.10;99.90;;;;;;5043052;28;20099;-79
2022/12/27 10:54:53;;;;;;;21.23;8.23;;;6.20;99.90;;;;;;5053590;28;20056;-79
2022/12/27 10:57:32;;;;;;;16.00;9.27;;;6.20;99.90;;;;;;5054514;28;20098;-79
2022/12/27 11:00:19;;;;;;;17.80;9.00;;;6.20;99.90;;;;;;5053039;28;20029;-79
2022/12/27 11:02:53;;;;;;;20.25;8.05;;;6.30;99.90;;;;;;5054899;28;20033;-80
2022/12/27 11:05:25;;;;;;;16.30;7.45;;;6.30;99.90;;;;;;5053684;28;20025;-79
2022/12/27 11:07:51;;;;;;;15.13;7.38;;;6.40;99.90;;;;;;5055730;28;20481;-79
2022/12/27 11:10:19;;;;;;;16.00;7.78;;;6.40;99.90;;;;;;5056274;28;20055;-79
2022/12/27 11:12:58;;;;;;;18.17;7.40;;;6.50;99.90;;;;;;5058481;28;20091;-79
2022/12/27 11:15:26;;;;;;;16.65;6.50;;;6.50;99.90;;;;;;5057344;28;20025;-80
2022/12/27 11:18:01;;;;;;;11.18;6.15;;;6.50;99.90;;;;;;5057093;28;20049;-80
2022/12/27 11:20:37;;;;;;;17.05;7.15;;;6.50;99.90;;;;;;5057937;28;20036;-79
2022/12/27 11:23:11;;;;;;;15.60;7.00;;;6.60;99.90;;;;;;5056999;28;20361;-79
2022/12/27 11:25:56;;;;;;;16.27;6.47;;;6.60;99.90;;;;;;5056830;28;20466;-79
2022/12/27 11:28:26;;;;;;;14.30;6.70;;;6.60;99.90;;;;;;5056556;28;20039;-79
2022/12/27 11:30:57;;;;;;;15.88;7.22;;;6.70;99.90;;;;;;5056350;28;20024;-80
2022/12/27 11:33:38;;;;;;;18.33;8.38;;;6.80;99.90;;;;;;5055948;28;20029;-79
2022/12/27 11:36:06;;;;;;;11.93;6.90;;;6.90;99.90;;;;;;5057974;28;20025;-80
2022/12/27 11:38:34;;;;;;;17.58;6.55;;;6.90;99.90;;;;;;5056028;28;20177;-80
2022/12/27 11:41:08;;;;;;;15.32;5.82;;;7.00;99.90;;;;;;5056872;28;20108;-79
2022/12/27 11:43:45;;;;;;;14.43;5.97;;;7.10;99.90;;;;;;5055157;28;20033;-80
2022/12/27 11:46:26;;;;;;;12.23;5.63;;;7.10;99.90;;;;;;5055894;28;20489;-80
2022/12/27 11:48:57;;;;;;;16.48;5.40;;;7.20;99.90;;;;;;5056524;28;20036;-80
2022/12/27 11:51:55;;;;;;;16.38;5.18;;;7.20;99.90;;;;;;5057337;28;20072;-80
2022/12/27 11:54:40;;;;;;;16.17;5.47;;;7.20;99.90;;;;;;5056428;28;20025;-79
2022/12/27 11:57:11;;;;;;;14.75;4.13;;;7.20;99.90;;;;;;5059541;28;20437;-80
2022/12/27 12:00:02;;;;;;;11.30;4.05;;;7.30;99.90;;;;;;5056620;28;20053;-80
2022/12/27 12:03:00;;;;;;;13.63;4.78;;;7.30;99.90;;;;;;5055945;28;20036;-80
2022/12/27 12:05:47;;;;;;;11.98;3.92;;;7.30;99.90;;;;;;5055416;28;20032;-80
2022/12/27 12:08:12;;;;;;;11.52;3.72;;;7.30;99.90;;;;;;5056473;28;20052;-80
2022/12/27 12:11:13;;;;;;;13.98;4.43;;;7.40;99.90;;;;;;5055732;28;20618;-82
2022/12/27 12:14:09;;;;;;;13.35;4.70;;;7.50;99.90;;;;;;4978108;28;20028;-82
2022/12/27 12:16:59;;;;;;;18.05;5.22;;;7.60;99.90;;;;;;5055171;28;20087;-81
2022/12/27 12:19:51;;;;;;;15.38;3.30;;;7.70;99.90;;;;;;5055492;28;20039;-81
2022/12/27 12:22:51;;;;;;;10.20;3.25;;;7.70;99.90;;;;;;5066185;28;20037;-80
2022/12/27 12:25:29;;;;;;;10.18;3.13;;;7.80;99.90;;;;;;5030064;28;20044;-80
2022/12/27 12:28:13;;;;;;;13.93;2.90;;;7.90;99.90;;;;;;5060194;28;20021;-80
2022/12/27 12:31:08;;;;;;;9.75;2.72;;;8.00;99.90;;;;;;5055400;28;20029;-80
2022/12/27 12:33:52;;;;;;;8.50;2.67;;;8.00;99.90;;;;;;5055929;28;20029;-81
2022/12/27 12:36:32;;;;;;;13.80;3.30;;;8.00;99.90;;;;;;5056023;28;20025;-80
2022/12/27 12:39:14;;;;;;;10.95;2.53;;;8.10;99.90;;;;;;5055433;28;20096;-80
2022/12/27 12:41:43;;;;;;;9.50;3.45;;;8.10;99.90;;;;;;5054575;28;20102;-80
2022/12/27 12:44:09;;;;;;;12.10;2.63;;;8.20;99.90;;;;;;5055017;28;20044;-80
2022/12/27 12:46:55;;;;;;;10.93;2.78;;;8.20;99.90;;;;;;5054748;28;20457;-81
2022/12/27 12:49:42;;;;;;;12.68;3.00;;;8.20;99.90;;;;;;5056284;28;20029;-81
2022/12/27 12:52:28;;;;;;;7.25;2.60;;;8.30;99.90;;;;;;5055740;28;20031;-81
2022/12/27 12:55:47;;;;;;;9.00;3.15;;;8.30;99.90;;;;;;5057104;28;20024;-81
2022/12/27 12:58:55;;;;;;;9.10;2.55;;;8.30;99.90;;;;;;4999607;28;20055;-81
2022/12/27 13:01:20;;;;;;;8.75;1.88;;;8.20;99.90;;;;;;5009420;28;20041;-81
2022/12/27 13:04:07;;;;;;;9.10;2.55;;;8.20;99.90;;;;;;5057357;28;20457;-81
2022/12/27 13:07:16;;;;;;;8.90;2.40;;;8.20;99.90;;;;;;5055342;28;20172;-81
2022/12/27 13:10:14;;;;;;;9.10;2.33;;;8.10;99.90;;;;;;5058198;28;20462;-81
2022/12/27 13:13:10;;;;;;;13.20;2.38;;;8.10;99.90;;;;;;5032406;28;20048;-80
2022/12/27 13:16:08;;;;;;;11.35;3.55;;;8.00;99.90;;;;;;5056166;28;20113;-81
2022/12/27 13:18:47;;;;;;;11.25;2.92;;;8.00;99.90;;;;;;5057550;28;20045;-80
2022/12/27 13:21:29;;;;;;;11.88;2.53;;;8.00;99.90;;;;;;5056728;28;20025;-81
2022/12/27 13:24:34;;;;;;;12.18;2.42;;;8.00;99.90;;;;;;5057666;28;20359;-81
2022/12/27 13:27:11;;;;;;;10.93;2.47;;;8.00;99.90;;;;;;5057302;28;20033;-81
2022/12/27 13:29:57;;;;;;;11.70;3.00;;;8.00;99.90;;;;;;5061489;28;20028;-80
2022/12/27 13:32:31;;;;;;;8.77;2.25;;;8.00;99.90;;;;;;5057778;28;20029;-81
2022/12/27 13:35:18;;;;;;;7.00;2.40;;;8.10;99.90;;;;;;5054405;28;20028;-80
2022/12/27 13:38:06;;;;;;;12.75;3.40;;;8.10;99.90;;;;;;5055168;28;20021;-80
2022/12/27 13:41:08;;;;;;;10.18;2.67;;;8.20;99.90;;;;;;5056391;28;20029;-80
2022/12/27 13:44:09;;;;;;;8.48;2.40;;;8.20;99.90;;;;;;5054178;28;20389;-81
2022/12/27 13:46:50;;;;;;;9.10;2.70;;;8.30;99.90;;;;;;5060518;28;20029;-80
2022/12/27 13:49:38;;;;;;;8.25;2.58;;;8.20;99.90;;;;;;5056105;28;20028;-81
2022/12/27 13:52:41;;;;;;;10.20;2.78;;;8.30;99.90;;;;;;5056789;28;20071;-80
2022/12/27 13:55:37;;;;;;;6.97;2.40;;;8.30;99.90;;;;;;4998460;28;20031;-81
2022/12/27 13:58:18;;;;;;;9.65;2.90;;;8.30;99.90;;;;;;5052566;28;20087;-81
2022/12/27 14:00:57;;;;;;;9.15;3.10;;;8.30;99.90;;;;;;5052680;28;20060;-81
2022/12/27 14:03:44;;;;;;;8.73;2.72;;;8.20;99.90;;;;;;5053764;28;20466;-81
2022/12/27 14:06:22;;;;;;;11.65;2.90;;;8.20;99.90;;;;;;5053737;28;20028;-81
2022/12/27 14:09:15;;;;;;;8.93;2.85;;;8.20;99.90;;;;;;5053837;28;20108;-81
2022/12/27 14:12:02;;;;;;;12.05;2.38;;;8.20;99.90;;;;;;5052639;28;20040;-81
2022/12/27 14:14:29;;;;;;;9.35;2.40;;;8.20;99.90;;;;;;5053957;28;20025;-81
2022/12/27 14:17:17;;;;;;;10.73;2.88;;;8.20;99.90;;;;;;5051906;28;20127;-81
2022/12/27 14:20:39;;;;;;;6.78;2.20;;;8.10;99.90;;;;;;5054167;28;20036;-82
2022/12/27 14:23:07;;;;;;;9.80;2.63;;;8.20;99.90;;;;;;4975798;28;20471;-81
2022/12/27 14:25:51;;;;;;;7.10;2.63;;;8.10;99.90;;;;;;5050638;28;20063;-81
2022/12/27 14:28:28;;;;;;;8.82;2.60;;;8.10;99.90;;;;;;5053740;28;20045;-82
2022/12/27 14:31:12;;;;;;;7.45;2.40;;;8.10;99.90;;;;;;5053572;28;20480;-81
2022/12/27 14:33:40;;;;;;;;;;;8.10;99.90;;;;;;5053855;28;20053;-82
2022/12/27 14:36:42;;;;;;;10.40;2.45;;;8.00;99.90;;;;;;5053407;28;20000;-82
2022/12/27 14:39:22;;;;;;;8.60;2.50;;;8.00;99.90;;;;;;5053258;28;20028;-76
2022/12/27 14:42:03;;;;;;;7.60;2.08;;;8.00;99.90;;;;;;5053379;28;20465;-74
2022/12/27 14:45:08;;;;;;;6.30;2.08;;;8.00;99.90;;;;;;5057025;28;20029;-74
2022/12/27 14:48:07;;;;;;;7.55;2.92;;;8.00;99.90;;;;;;5057120;28;20025;-82
2022/12/27 14:50:53;;;;;;;7.22;2.15;;;8.00;99.90;;;;;;5056009;28;20029;-83
2022/12/27 14:53:53;;;;;;;9.65;3.28;;;8.00;99.90;;;;;;5057450;28;20075;-83
2022/12/27 14:56:37;;;;;;;9.18;2.90;;;8.00;99.90;;;;;;5056188;28;20032;-85
2022/12/27 14:59:12;;;;;;;6.80;2.00;;;8.00;99.90;;;;;;5056622;28;20032;-83
2022/12/27 15:01:43;;;;;;;8.88;2.90;;;8.00;99.90;;;;;;5055917;28;20122;-81